Time;durP1;ratioP1;P1;durP2;ratioP2;P2;SDS_P1;SDS_P2;PMS_P1;PMS_P2;Temp;Humidity;BMP_temperature;BMP_pressure;BME280_temperature;BME280_humidity;BME280_pressure;Samples;Min_cycle;Max_cycle;Signal;HPM_P1;HPM_P2
2021/09/30 00:02:08;;;;;;;49.35;23.95;;;;;;;6.61;100.00;102284.81;5003308;28;20030;-67
2021/09/30 00:04:33;;;;;;;44.67;22.42;;;;;;;6.61;100.00;102290.06;5001958;28;20465;-68
2021/09/30 00:06:59;;;;;;;48.92;22.98;;;;;;;6.59;100.00;102289.06;5001798;28;20041;-68
2021/09/30 00:09:25;;;;;;;46.35;21.60;;;;;;;6.57;100.00;102285.50;5001926;28;20135;-68
2021/09/30 00:11:55;;;;;;;47.70;22.30;;;;;;;6.57;100.00;102293.38;5002957;28;20023;-67
2021/09/30 00:14:28;;;;;;;51.05;21.85;;;;;;;6.53;100.00;102294.06;5005970;28;20068;-68
2021/09/30 00:33:20;;;;;;;42.05;18.63;;;;;;;6.41;100.00;102304.94;5003699;28;20386;-63
2021/09/30 00:36:13;;;;;;;43.63;19.02;;;;;;;6.45;100.00;102303.31;4998474;28;20050;-62
2021/09/30 00:47:11;;;;;;;43.65;17.45;;;;;;;6.41;100.00;102307.56;5021807;28;20523;-62
2021/09/30 00:55:09;;;;;;;41.50;16.40;;;;;;;6.38;100.00;102317.06;5013181;28;20172;-63
2021/09/30 01:18:25;;;;;;;42.65;15.98;;;;;;;6.37;100.00;102315.25;5017927;28;20040;-61
2021/09/30 02:26:54;;;;;;;40.58;16.90;;;;;;;6.07;100.00;102350.69;5026064;28;20065;-61
2021/09/30 02:59:05;;;;;;;44.47;18.13;;;;;;;5.90;100.00;102349.84;5022931;28;20045;-61
2021/09/30 03:01:33;;;;;;;46.00;17.17;;;;;;;5.94;100.00;102343.91;5025675;28;20030;-61
2021/09/30 03:03:59;;;;;;;45.45;17.27;;;;;;;5.93;100.00;102347.34;5015247;28;20488;-62
2021/09/30 03:06:26;;;;;;;44.85;17.42;;;;;;;5.94;100.00;102356.13;5024007;28;20033;-61
2021/09/30 03:08:54;;;;;;;44.33;17.00;;;;;;;5.91;100.00;102340.22;5026624;28;20029;-62
2021/09/30 03:11:21;;;;;;;40.28;16.58;;;;;;;5.91;100.00;102359.53;5023537;28;20080;-61
2021/09/30 03:13:50;;;;;;;43.97;16.58;;;;;;;5.91;100.00;102367.41;5019471;28;20026;-60
2021/09/30 03:16:36;;;;;;;42.30;17.13;;;;;;;5.90;100.00;102362.06;5026722;28;20104;-61
2021/09/30 03:19:05;;;;;;;44.58;17.38;;;;;;;5.87;100.00;102354.06;5022782;28;20022;-68
2021/09/30 03:24:17;;;;;;;42.33;16.75;;;;;;;5.86;100.00;102363.63;5026431;28;20036;-68
2021/09/30 03:26:45;;;;;;;43.63;16.35;;;;;;;5.84;100.00;102365.31;5023490;28;20025;-69
2021/09/30 03:29:12;;;;;;;42.60;15.95;;;;;;;5.83;100.00;102366.13;5025787;28;20480;-67
2021/09/30 03:31:38;;;;;;;44.30;16.67;;;;;;;5.78;100.00;102371.97;5024022;28;20496;-68
2021/09/30 03:34:05;;;;;;;39.38;15.55;;;;;;;5.79;100.00;102371.16;5014821;28;20026;-67
2021/09/30 03:36:31;;;;;;;44.85;16.45;;;;;;;5.77;100.00;102368.47;5014803;28;20101;-68
2021/09/30 03:38:57;;;;;;;42.72;15.80;;;;;;;5.79;100.00;102371.16;5014531;28;20038;-67
2021/09/30 03:41:23;;;;;;;40.90;15.60;;;;;;;5.74;100.00;102368.31;5022856;28;20037;-68
2021/09/30 03:43:48;;;;;;;36.70;14.80;;;;;;;5.76;100.00;102369.28;5026156;28;20052;-68
2021/09/30 03:46:13;;;;;;;37.85;15.02;;;;;;;5.79;100.00;102372.03;5022988;28;20030;-68
2021/09/30 03:48:39;;;;;;;37.00;15.27;;;;;;;5.81;100.00;102380.91;5014384;28;20104;-68
2021/09/30 03:51:15;;;;;;;41.67;14.90;;;;;;;5.81;100.00;102375.66;5014562;28;20032;-67
2021/09/30 03:56:30;;;;;;;37.92;14.60;;;;;;;5.78;100.00;102385.97;5024140;28;20033;-67
2021/09/30 04:01:38;;;;;;;38.67;14.30;;;;;;;5.75;100.00;102388.47;5023860;28;20139;-68
2021/09/30 04:04:03;;;;;;;34.08;13.70;;;;;;;5.84;100.00;102395.88;5023792;28;20061;-68
2021/09/30 04:06:28;;;;;;;39.08;14.48;;;;;;;5.83;100.00;102413.38;5024494;28;20076;-61
2021/09/30 04:08:56;;;;;;;36.70;13.60;;;;;;;5.79;100.00;102408.78;5022554;28;20370;-62
2021/09/30 04:11:22;;;;;;;35.70;13.30;;;;;;;5.83;100.00;102401.97;5026074;28;20083;-60
2021/09/30 04:13:47;;;;;;;36.03;13.60;;;;;;;5.78;100.00;102412.22;5022381;28;20030;-60
2021/09/30 04:16:12;;;;;;;36.80;13.43;;;;;;;5.74;100.00;102408.56;5013815;28;20030;-63
2021/09/30 04:18:38;;;;;;;34.75;13.50;;;;;;;5.75;100.00;102417.31;5014054;28;20436;-62
2021/09/30 04:21:03;;;;;;;34.97;13.27;;;;;;;5.76;100.00;102414.78;5013977;28;20403;-62
2021/09/30 04:23:28;;;;;;;36.05;13.50;;;;;;;5.78;100.00;102414.84;5023030;28;20117;-61
2021/09/30 04:25:54;;;;;;;36.03;13.70;;;;;;;5.80;100.00;102420.19;5025249;28;20067;-60
2021/09/30 04:28:19;;;;;;;37.05;13.13;;;;;;;5.75;100.00;102426.13;5013681;28;20034;-60
2021/09/30 04:30:45;;;;;;;35.45;13.45;;;;;;;5.77;100.00;102426.19;5025023;28;20076;-62
2021/09/30 04:33:10;;;;;;;38.35;14.23;;;;;;;5.75;100.00;102417.31;5022666;28;20040;-61
2021/09/30 04:35:35;;;;;;;40.63;14.15;;;;;;;5.71;100.00;102425.91;5023849;28;20022;-60
2021/09/30 04:38:01;;;;;;;41.00;13.98;;;;;;;5.74;100.00;102428.66;5024010;28;20465;-61
2021/09/30 04:40:26;;;;;;;34.90;13.25;;;;;;;5.75;100.00;102427.81;5022315;28;20062;-61
2021/09/30 04:42:51;;;;;;;34.25;12.68;;;;;;;5.72;100.00;102432.91;5024979;28;20021;-61
2021/09/30 04:45:17;;;;;;;36.10;13.23;;;;;;;5.70;100.00;102424.09;5022048;28;20062;-61
2021/09/30 04:47:42;;;;;;;34.40;12.90;;;;;;;5.80;100.00;102431.59;5013582;28;20030;-62
2021/09/30 04:50:09;;;;;;;35.92;13.23;;;;;;;5.78;100.00;102421.84;5023557;28;20030;-62
2021/09/30 04:52:35;;;;;;;34.42;12.93;;;;;;;5.76;100.00;102425.28;5023596;28;20056;-61
2021/09/30 04:55:00;;;;;;;32.85;13.00;;;;;;;5.72;100.00;102425.06;5013321;28;20056;-61
2021/09/30 04:57:26;;;;;;;30.98;12.52;;;;;;;5.72;100.00;102427.69;5021840;28;20428;-61
2021/09/30 04:59:51;;;;;;;38.22;13.43;;;;;;;5.66;100.00;102423.03;5025035;28;20026;-60
2021/09/30 05:02:16;;;;;;;33.45;12.93;;;;;;;5.69;100.00;102428.41;5021483;28;20079;-60
2021/09/30 05:04:42;;;;;;;34.55;13.20;;;;;;;5.73;100.00;102434.72;5023881;28;20040;-60
2021/09/30 05:07:07;;;;;;;37.78;13.38;;;;;;;5.67;100.00;102437.06;5022780;28;20037;-61
2021/09/30 05:09:33;;;;;;;37.30;13.43;;;;;;;5.69;100.00;102432.78;5022598;28;20164;-61
2021/09/30 05:12:02;;;;;;;35.85;13.60;;;;;;;5.63;100.00;102437.72;5023938;28;20025;-62
2021/09/30 05:14:27;;;;;;;37.13;14.07;;;;;;;5.66;100.00;102445.75;5022304;28;20346;-61
2021/09/30 05:16:53;;;;;;;37.17;13.98;;;;;;;5.63;100.00;102437.72;5023388;28;20029;-62
2021/09/30 05:19:19;;;;;;;38.42;13.85;;;;;;;5.65;100.00;102438.69;5013119;28;20030;-60
2021/09/30 05:21:45;;;;;;;35.60;13.45;;;;;;;5.64;100.00;102439.53;5013193;28;20037;-60
2021/09/30 05:24:10;;;;;;;35.58;13.93;;;;;;;5.61;100.00;102445.53;5012890;28;20389;-60
2021/09/30 05:26:36;;;;;;;36.80;14.15;;;;;;;5.54;100.00;102438.16;5012980;28;20044;-62
2021/09/30 05:29:03;;;;;;;32.25;13.32;;;;;;;5.53;100.00;102436.34;5012777;28;20511;-62
2021/09/30 05:31:29;;;;;;;35.42;13.88;;;;;;;5.51;100.00;102432.78;5021754;28;20032;-61
2021/09/30 05:33:54;;;;;;;36.42;14.23;;;;;;;5.47;100.00;102436.94;5024189;28;20581;-62
2021/09/30 05:36:20;;;;;;;33.55;13.75;;;;;;;5.46;100.00;102432.53;5019319;28;20034;-61
2021/09/30 05:38:46;;;;;;;41.58;14.13;;;;;;;5.43;100.00;102424.50;5016739;28;20405;-62
2021/09/30 05:41:11;;;;;;;35.90;13.57;;;;;;;5.40;100.00;102430.50;5015952;28;20021;-61
2021/09/30 05:43:38;;;;;;;36.80;14.55;;;;;;;5.42;100.00;102441.06;5020828;28;20049;-60
2021/09/30 05:46:05;;;;;;;34.72;13.45;;;;;;;5.44;100.00;102431.53;5014767;28;20030;-61
2021/09/30 05:48:31;;;;;;;38.03;14.80;;;;;;;5.43;100.00;102424.50;5018441;28;20033;-60
2021/09/30 05:50:56;;;;;;;32.75;13.77;;;;;;;5.42;100.00;102427.97;5018380;28;20029;-60
2021/09/30 05:53:22;;;;;;;38.45;14.52;;;;;;;5.42;100.00;102422.72;5017180;28;20030;-61
2021/09/30 05:55:48;;;;;;;35.05;14.48;;;;;;;5.42;100.00;102427.97;5017846;28;20026;-61
2021/09/30 05:58:14;;;;;;;37.25;15.10;;;;;;;5.44;100.00;102425.41;5017823;28;20034;-62
2021/09/30 06:01:00;;;;;;;34.20;14.52;;;;;;;5.44;100.00;102426.28;5017730;28;20037;-60
2021/09/30 06:14:22;;;;;;;36.78;15.55;;;;;;;5.61;100.00;102434.09;5017731;28;20033;-61
2021/09/30 06:16:51;;;;;;;36.10;14.75;;;;;;;5.65;100.00;102436.06;5019491;28;20527;-60
2021/09/30 06:19:25;;;;;;;36.55;15.02;;;;;;;5.70;100.00;102434.59;5018197;28;20022;-61
2021/09/30 06:21:52;;;;;;;35.45;14.95;;;;;;;5.72;100.00;102433.84;5019844;28;20032;-60
2021/09/30 06:24:20;;;;;;;37.97;15.50;;;;;;;5.72;100.00;102435.53;5018421;28;20366;-60
2021/09/30 06:26:46;;;;;;;35.22;15.48;;;;;;;5.76;100.00;102440.13;5021862;28;20140;-61
2021/09/30 06:29:11;;;;;;;37.80;15.95;;;;;;;5.77;100.00;102436.69;5022755;28;20049;-61
2021/09/30 06:31:37;;;;;;;38.72;15.30;;;;;;;5.84;100.00;102440.50;5025025;28;20072;-61
2021/09/30 06:34:02;;;;;;;40.13;15.35;;;;;;;5.87;100.00;102438.06;5019164;28;20487;-60
2021/09/30 06:36:28;;;;;;;36.72;15.40;;;;;;;5.94;100.00;102454.16;5021018;28;20026;-61
2021/09/30 06:38:54;;;;;;;34.80;14.93;;;;;;;6.04;100.00;102446.75;5023038;28;20061;-60
2021/09/30 06:41:19;;;;;;;34.38;14.57;;;;;;;6.10;100.00;102452.31;5027641;28;20021;-60
2021/09/30 06:43:44;;;;;;;38.25;15.10;;;;;;;6.16;100.00;102447.38;5021003;28;20041;-60
2021/09/30 06:46:10;;;;;;;34.90;14.77;;;;;;;6.23;100.00;102443.28;5023061;28;20071;-59
2021/09/30 06:48:35;;;;;;;37.00;15.63;;;;;;;6.30;100.00;102447.13;5025634;28;20380;-60
2021/09/30 06:51:00;;;;;;;34.00;14.30;;;;;;;6.36;100.00;102457.91;5019517;28;20057;-60
2021/09/30 06:53:26;;;;;;;33.53;14.50;;;;;;;6.45;100.00;102461.88;5026037;28;20013;-60
2021/09/30 06:55:51;;;;;;;37.95;15.07;;;;;;;6.52;100.00;102463.03;5019047;28;20057;-60
2021/09/30 06:58:20;;;;;;;33.97;14.35;;;;;;;6.58;100.00;102447.59;5020193;28;20439;-62
2021/09/30 07:00:45;;;;;;;39.13;14.77;;;;;;;6.69;100.00;102449.81;5022882;28;20408;-62
2021/09/30 07:03:11;;;;;;;37.15;14.93;;;;;;;6.78;100.00;102461.63;5021644;28;20120;-60
2021/09/30 07:05:37;;;;;;;33.25;14.05;;;;;;;6.89;100.00;102450.72;5020605;28;20030;-61
2021/09/30 07:08:03;;;;;;;35.60;13.73;;;;;;;6.98;100.00;102454.66;5023327;28;20033;-61
2021/09/30 07:10:29;;;;;;;38.75;14.60;;;;;;;7.08;100.00;102455.06;5020342;28;20107;-62
2021/09/30 07:12:55;;;;;;;37.28;13.57;;;;;;;7.13;100.00;102469.31;5019732;28;20068;-60
2021/09/30 07:15:22;;;;;;;35.33;14.15;;;;;;;7.26;100.00;102458.50;5020455;28;20026;-60
2021/09/30 07:17:47;;;;;;;33.88;13.25;;;;;;;7.36;100.00;102448.38;5021896;28;20037;-61
2021/09/30 07:20:12;;;;;;;34.35;13.48;;;;;;;7.44;100.00;102447.88;5024874;28;20022;-61
2021/09/30 07:22:38;;;;;;;34.70;13.18;;;;;;;7.55;100.00;102457.97;5021660;28;20036;-62
2021/09/30 07:25:05;;;;;;;34.83;12.43;;;;;;;7.64;100.00;102453.97;5023482;28;20489;-61
2021/09/30 07:27:31;;;;;;;35.08;12.85;;;;;;;7.72;100.00;102462.19;5022287;28;20047;-64
2021/09/30 07:29:56;;;;;;;35.38;12.05;;;;;;;7.77;100.00;102458.00;5019380;28;20021;-66
2021/09/30 07:32:24;;;;;;;33.58;12.40;;;;;;;7.82;100.00;102447.66;5020651;28;20029;-68
2021/09/30 07:34:49;;;;;;;35.20;12.60;;;;;;;7.88;100.00;102449.66;5020965;28;20033;-60
2021/09/30 07:37:15;;;;;;;33.97;12.35;;;;;;;7.92;100.00;102455.13;5020022;28;20392;-60
2021/09/30 07:39:40;;;;;;;31.33;10.98;;;;;;;7.98;100.00;102460.66;5018307;28;20396;-61
2021/09/30 07:42:06;;;;;;;33.75;12.02;;;;;;;8.02;100.00;102457.31;5022438;28;20037;-62
2021/09/30 07:44:33;;;;;;;31.13;11.55;;;;;;;8.10;100.00;102464.63;5019173;28;20548;-60
2021/09/30 07:46:59;;;;;;;34.67;11.93;;;;;;;8.17;100.00;102456.13;5019668;28;20042;-62
2021/09/30 07:49:24;;;;;;;33.75;12.05;;;;;;;8.20;100.00;102453.59;5020862;28;20534;-60
2021/09/30 07:51:50;;;;;;;33.28;12.07;;;;;;;8.29;100.00;102455.72;5020472;28;20381;-60
2021/09/30 07:54:15;;;;;;;31.83;12.15;;;;;;;8.35;100.00;102470.00;5021829;28;20068;-60
2021/09/30 07:56:41;;;;;;;34.95;11.70;;;;;;;8.40;100.00;102458.75;5016061;28;20385;-60
2021/09/30 07:59:06;;;;;;;35.83;12.57;;;;;;;8.48;100.00;102467.91;5018929;28;20025;-60
2021/09/30 08:01:32;;;;;;;32.50;11.13;;;;;;;8.52;100.00;102472.47;5021796;28;20370;-60
2021/09/30 08:03:59;;;;;;;34.08;11.18;;;;;;;8.61;100.00;102478.06;5022870;28;20037;-61
2021/09/30 08:06:25;;;;;;;33.97;11.60;;;;;;;8.66;100.00;102473.84;5021710;28;20030;-62
2021/09/30 08:08:51;;;;;;;33.28;11.02;;;;;;;8.74;100.00;102471.53;5023317;28;20026;-61
2021/09/30 08:11:16;;;;;;;35.45;11.55;;;;;;;8.84;99.78;102468.41;5024462;28;20026;-61
2021/09/30 08:13:42;;;;;;;31.45;11.02;;;;;;;8.94;97.89;102480.19;5025803;28;20110;-61
2021/09/30 08:16:07;;;;;;;34.10;11.52;;;;;;;9.07;100.00;102471.88;5020813;28;20113;-61
2021/09/30 08:18:33;;;;;;;35.67;11.43;;;;;;;9.16;97.93;102479.22;5019673;28;20377;-62
2021/09/30 08:20:58;;;;;;;31.75;10.80;;;;;;;9.23;96.15;102472.41;5025833;28;20108;-62
2021/09/30 08:23:24;;;;;;;32.85;11.35;;;;;;;9.32;98.04;102477.13;5017777;28;20263;-61
2021/09/30 08:25:51;;;;;;;33.35;11.15;;;;;;;9.45;99.60;102481.09;5025317;28;20087;-63
2021/09/30 08:28:18;;;;;;;30.98;10.65;;;;;;;9.54;99.49;102484.97;5022991;28;20389;-61
2021/09/30 08:30:43;;;;;;;35.25;11.50;;;;;;;9.69;92.17;102476.66;5025527;28;20083;-62
2021/09/30 08:33:10;;;;;;;31.92;10.55;;;;;;;9.84;93.52;102483.31;5022939;28;20029;-61
2021/09/30 08:35:39;;;;;;;35.90;10.55;;;;;;;9.94;89.04;102486.28;5024879;28;20025;-62
2021/09/30 08:38:06;;;;;;;32.67;10.82;;;;;;;10.04;89.56;102482.22;5026499;28;20025;-61
2021/09/30 08:40:32;;;;;;;33.05;10.63;;;;;;;10.20;87.74;102488.03;5021594;28;20049;-61
2021/09/30 08:42:57;;;;;;;39.78;11.30;;;;;;;10.35;87.67;102492.91;5022116;28;20029;-62
2021/09/30 08:45:23;;;;;;;32.90;10.18;;;;;;;10.51;85.74;102489.88;5020755;28;20448;-61
2021/09/30 08:48:04;;;;;;;32.90;10.23;;;;;;;10.69;85.75;102499.22;5018834;28;20069;-62
2021/09/30 08:50:38;;;;;;;30.30;9.38;;;;;;;11.00;81.07;102506.34;5022629;28;20033;-62
2021/09/30 08:53:05;;;;;;;34.08;9.65;;;;;;;11.26;81.81;102492.97;5017329;28;20064;-62
2021/09/30 08:55:31;;;;;;;32.97;9.35;;;;;;;11.49;77.22;102497.13;5022016;28;20631;-61
2021/09/30 08:57:56;;;;;;;30.30;8.52;;;;;;;11.50;76.77;102487.41;5019410;28;20114;-62
2021/09/30 09:00:21;;;;;;;27.05;8.32;;;;;;;11.52;75.99;102491.03;5019840;28;20036;-61
2021/09/30 09:02:52;;;;;;;30.02;8.10;;;;;;;11.75;75.76;102482.75;5019565;28;20037;-61
2021/09/30 09:05:19;;;;;;;29.00;7.80;;;;;;;12.04;74.04;102486.16;5017229;28;20022;-62
2021/09/30 09:08:00;;;;;;;28.48;7.70;;;;;;;12.33;73.52;102481.59;5019008;28;20033;-62
2021/09/30 09:10:29;;;;;;;29.25;8.20;;;;;;;12.97;71.92;102483.81;5019233;28;20037;-62
2021/09/30 09:13:03;;;;;;;29.55;7.93;;;;;;;13.40;69.44;102481.16;5017900;28;20029;-62
2021/09/30 09:15:40;;;;;;;27.40;6.95;;;;;;;13.55;67.44;102484.06;5018558;28;20071;-62
2021/09/30 09:18:22;;;;;;;30.05;6.75;;;;;;;13.21;67.23;102478.13;5016146;28;20034;-61
2021/09/30 09:21:19;;;;;;;28.38;7.00;;;;;;;12.99;67.62;102486.50;5019262;28;20033;-60
2021/09/30 09:23:48;;;;;;;27.02;6.72;;;;;;;12.69;67.25;102490.31;5017266;28;20377;-61
2021/09/30 09:26:19;;;;;;;26.95;6.90;;;;;;;12.53;69.01;102486.44;5019101;28;20038;-62
2021/09/30 09:29:07;;;;;;;26.20;6.40;;;;;;;12.46;70.09;102480.06;5019603;28;20030;-62
2021/09/30 09:31:35;;;;;;;26.85;6.18;;;;;;;12.32;68.22;102492.13;5017066;28;20024;-61
2021/09/30 09:34:19;;;;;;;24.92;6.60;;;;;;;12.19;68.24;102488.31;5019512;28;20149;-62
2021/09/30 09:36:50;;;;;;;29.85;6.60;;;;;;;12.08;67.72;102487.16;5016438;28;20053;-62
2021/09/30 09:39:36;;;;;;;27.58;6.10;;;;;;;12.04;67.32;102483.50;5020111;28;20036;-62
2021/09/30 09:42:06;;;;;;;29.98;6.88;;;;;;;12.05;69.46;102482.66;5017080;28;20050;-61
2021/09/30 09:44:32;;;;;;;28.25;6.40;;;;;;;12.18;68.10;102478.56;5019937;28;20050;-62
2021/09/30 09:46:57;;;;;;;26.45;6.45;;;;;;;12.44;65.73;102476.50;5016486;28;20029;-60
2021/09/30 09:49:23;;;;;;;27.35;6.53;;;;;;;12.49;64.64;102480.13;5020944;28;20022;-61
2021/09/30 09:51:52;;;;;;;26.10;5.90;;;;;;;12.60;65.25;102475.09;5017297;28;20028;-60
2021/09/30 09:54:26;;;;;;;25.75;6.10;;;;;;;12.80;63.93;102474.59;5022949;28;20079;-61
2021/09/30 09:56:51;;;;;;;25.20;5.85;;;;;;;12.91;63.66;102460.69;5020930;28;20109;-61
2021/09/30 09:59:40;;;;;;;26.17;5.88;;;;;;;13.23;63.24;102470.19;5019280;28;20065;-60
2021/09/30 10:02:05;;;;;;;25.23;5.47;;;;;;;13.53;61.10;102469.88;5016794;28;20151;-62
2021/09/30 10:04:31;;;;;;;29.33;5.78;;;;;;;13.35;60.75;102466.88;5023908;28;20426;-62
2021/09/30 10:06:57;;;;;;;28.85;6.20;;;;;;;13.48;61.83;102470.66;5024334;28;20032;-60
2021/09/30 10:09:23;;;;;;;27.13;6.60;;;;;;;13.49;60.36;102467.16;5026251;28;20120;-61
2021/09/30 10:11:48;;;;;;;25.77;5.60;;;;;;;13.56;60.25;102469.06;5024551;28;20503;-61
2021/09/30 10:14:15;;;;;;;24.10;5.88;;;;;;;13.85;59.72;102460.66;5024761;28;20080;-61
2021/09/30 10:16:47;;;;;;;25.15;5.40;;;;;;;14.03;60.46;102462.75;5019035;28;20384;-61
2021/09/30 10:19:12;;;;;;;27.33;5.88;;;;;;;14.44;59.12;102457.13;5021961;28;20022;-61
2021/09/30 10:21:38;;;;;;;25.58;5.30;;;;;;;15.17;55.86;102448.28;5024278;28;20089;-61
2021/09/30 10:24:12;;;;;;;24.17;5.00;;;;;;;15.62;54.38;102451.41;5026572;28;20101;-62
2021/09/30 10:26:44;;;;;;;20.80;4.75;;;;;;;15.31;53.04;102448.44;5019085;28;20037;-62
2021/09/30 10:29:10;;;;;;;22.42;5.10;;;;;;;14.93;53.62;102441.81;5019839;28;20138;-62
2021/09/30 10:31:37;;;;;;;21.65;5.22;;;;;;;14.55;55.72;102444.88;5022706;28;20072;-63
2021/09/30 10:34:08;;;;;;;26.33;5.00;;;;;;;14.23;57.82;102444.44;5021990;28;20033;-61
2021/09/30 10:36:39;;;;;;;24.98;5.43;;;;;;;14.07;58.49;102441.53;5021180;28;20032;-62
2021/09/30 10:39:22;;;;;;;27.00;5.25;;;;;;;14.00;58.80;102441.44;5022209;28;20034;-64
2021/09/30 10:41:52;;;;;;;27.90;5.78;;;;;;;13.86;59.49;102444.75;5020700;28;20022;-61
2021/09/30 10:44:21;;;;;;;27.52;5.40;;;;;;;13.72;60.55;102444.53;5021436;28;20496;-62
2021/09/30 10:46:49;;;;;;;25.95;5.68;;;;;;;13.87;59.77;102427.03;5019833;28;20076;-61
2021/09/30 10:49:32;;;;;;;28.63;5.53;;;;;;;13.82;59.44;102442.00;5018420;28;20053;-62
2021/09/30 10:52:20;;;;;;;25.25;5.30;;;;;;;13.90;59.90;102441.25;5019875;28;20024;-61
2021/09/30 10:55:10;;;;;;;23.27;4.95;;;;;;;14.20;60.56;102442.63;5020493;28;20071;-62
2021/09/30 10:57:47;;;;;;;25.55;5.55;;;;;;;14.49;57.25;102439.47;5020062;28;20025;-61
2021/09/30 11:00:18;;;;;;;26.02;5.07;;;;;;;14.34;56.93;102436.59;5019537;28;20026;-62
2021/09/30 11:03:02;;;;;;;26.20;4.82;;;;;;;14.34;58.90;102442.78;5019772;28;20080;-62
2021/09/30 11:05:28;;;;;;;25.40;4.93;;;;;;;14.16;57.06;102438.13;5019832;28;20110;-62
2021/09/30 11:08:24;;;;;;;26.00;5.15;;;;;;;14.32;58.95;102436.56;5019166;28;20374;-62
2021/09/30 11:11:05;;;;;;;25.23;4.75;;;;;;;14.20;58.61;102425.75;4992969;28;20046;-62
2021/09/30 11:13:33;;;;;;;23.85;4.50;;;;;;;14.19;57.48;102440.81;4990955;28;20034;-62
2021/09/30 11:15:58;;;;;;;25.30;4.93;;;;;;;14.16;58.26;102440.78;4989625;28;20053;-62
2021/09/30 11:18:39;;;;;;;22.52;4.25;;;;;;;14.28;59.59;102434.72;4994284;28;20034;-61
2021/09/30 11:21:32;;;;;;;22.48;4.32;;;;;;;14.24;58.22;102428.50;4991820;28;20047;-61
2021/09/30 11:24:00;;;;;;;25.25;4.38;;;;;;;14.18;58.98;102425.72;4992263;28;20068;-63
2021/09/30 11:26:28;;;;;;;21.30;4.45;;;;;;;14.25;57.96;102418.75;4991608;28;20040;-61
2021/09/30 11:28:55;;;;;;;24.45;4.45;;;;;;;14.24;57.66;102422.25;4991797;28;20054;-61
2021/09/30 11:31:28;;;;;;;24.42;4.75;;;;;;;14.46;59.34;102428.78;4992751;28;20046;-61
2021/09/30 11:33:56;;;;;;;25.15;4.90;;;;;;;14.54;57.54;102411.16;4993866;28;20035;-60
2021/09/30 11:36:34;;;;;;;25.98;4.43;;;;;;;14.48;58.10;102411.06;4991156;28;20549;-60
2021/09/30 11:39:00;;;;;;;28.10;4.57;;;;;;;14.54;57.96;102405.81;4989570;28;20084;-59
2021/09/30 11:41:29;;;;;;;26.63;4.63;;;;;;;14.61;59.18;102410.38;4991821;28;20049;-60
2021/09/30 11:43:54;;;;;;;26.88;4.60;;;;;;;14.67;57.31;102400.69;4991920;28;20430;-60
2021/09/30 11:46:34;;;;;;;26.63;4.50;;;;;;;14.67;57.64;102400.69;4991169;28;20081;-60
2021/09/30 11:49:01;;;;;;;26.73;4.50;;;;;;;14.72;57.03;102389.25;5021687;28;20029;-61
2021/09/30 11:51:32;;;;;;;23.10;4.35;;;;;;;15.02;55.91;102394.88;5023130;28;20034;-65
2021/09/30 11:53:58;;;;;;;24.20;4.00;;;;;;;15.42;54.11;102387.25;5024533;28;20396;-61
2021/09/30 11:56:24;;;;;;;25.08;4.60;;;;;;;16.06;53.20;102384.19;5024630;28;20034;-67
2021/09/30 11:59:05;;;;;;;25.60;4.57;;;;;;;16.41;54.31;102387.94;5022139;28;20029;-61
2021/09/30 12:01:34;;;;;;;24.23;4.75;;;;;;;16.15;52.87;102380.69;5022200;28;20025;-67
2021/09/30 12:04:00;;;;;;;25.95;4.70;;;;;;;15.76;53.73;102374.22;5019911;28;20030;-66
2021/09/30 12:06:39;;;;;;;23.42;4.40;;;;;;;15.79;54.52;102369.81;5017617;28;20029;-61
2021/09/30 12:09:04;;;;;;;24.45;4.63;;;;;;;15.77;53.13;102373.31;5022623;28;20043;-60
2021/09/30 12:11:31;;;;;;;25.30;4.90;;;;;;;15.51;53.03;102366.91;5021048;28;20029;-71
2021/09/30 12:13:58;;;;;;;25.33;4.95;;;;;;;15.25;54.63;102369.34;5020266;28;20025;-63
2021/09/30 12:16:23;;;;;;;25.40;5.10;;;;;;;15.19;55.59;102369.31;5019133;28;20052;-61
2021/09/30 12:19:01;;;;;;;22.02;4.43;;;;;;;15.22;56.83;102358.69;5019369;28;20456;-64
2021/09/30 12:21:38;;;;;;;28.27;6.10;;;;;;;15.09;54.67;102356.78;5019620;28;20112;-61
2021/09/30 12:24:04;;;;;;;24.58;5.25;;;;;;;14.72;55.58;102377.69;5018123;28;20022;-61
2021/09/30 12:26:30;;;;;;;27.52;5.97;;;;;;;14.45;57.20;102368.47;5018255;28;20030;-61
2021/09/30 12:28:59;;;;;;;28.52;6.10;;;;;;;14.31;58.36;102370.94;5017375;28;20022;-60
2021/09/30 12:31:25;;;;;;;28.02;6.00;;;;;;;14.35;57.59;102366.56;5021310;28;20444;-60
2021/09/30 12:33:50;;;;;;;28.67;5.75;;;;;;;14.21;58.76;102364.63;5022909;28;20030;-60
2021/09/30 12:36:19;;;;;;;27.05;5.85;;;;;;;14.11;57.99;102360.03;5017135;28;20034;-60
2021/09/30 12:39:03;;;;;;;25.58;5.57;;;;;;;13.90;59.84;102355.31;5019196;28;20026;-62
2021/09/30 12:41:30;;;;;;;29.52;6.68;;;;;;;13.88;60.25;102349.09;5020972;28;20073;-61
2021/09/30 12:44:09;;;;;;;29.52;6.35;;;;;;;13.89;60.60;102346.47;5023790;28;20050;-67
2021/09/30 12:46:42;;;;;;;26.77;6.25;;;;;;;13.93;60.63;102348.25;5023093;28;20022;-60
2021/09/30 12:49:08;;;;;;;30.50;6.90;;;;;;;13.85;59.57;102360.56;5024839;28;20053;-71
2021/09/30 12:51:33;;;;;;;30.50;6.72;;;;;;;13.88;61.27;102343.78;5023932;28;20056;-71
2021/09/30 12:53:58;;;;;;;30.45;6.57;;;;;;;13.92;60.20;102341.19;5025818;28;20084;-60
2021/09/30 12:56:29;;;;;;;31.02;6.55;;;;;;;13.93;59.63;102344.72;5025630;28;20041;-62
2021/09/30 12:58:55;;;;;;;27.73;6.10;;;;;;;13.86;61.77;102346.41;5025822;28;20041;-61
2021/09/30 13:01:35;;;;;;;29.20;5.95;;;;;;;13.83;61.37;102334.84;5022042;28;20025;-65
2021/09/30 13:04:22;;;;;;;32.83;6.93;;;;;;;13.85;60.52;102339.31;5021918;28;20029;-62
2021/09/30 13:06:59;;;;;;;29.00;6.53;;;;;;;13.90;61.30;102337.59;5018452;28;20045;-61
2021/09/30 13:09:24;;;;;;;26.67;6.05;;;;;;;13.93;60.28;102342.94;5021971;28;20064;-61
2021/09/30 13:11:58;;;;;;;29.42;6.25;;;;;;;14.00;60.43;102333.31;5022023;28;20141;-64
2021/09/30 13:14:52;;;;;;;29.00;5.78;;;;;;;14.05;60.55;102331.63;5021784;28;20018;-64
2021/09/30 13:17:20;;;;;;;23.80;5.78;;;;;;;14.14;61.55;102330.84;4987554;28;20030;-65
2021/09/30 13:19:51;;;;;;;26.10;5.93;;;;;;;14.21;61.27;102330.06;4988490;28;20054;-60
2021/09/30 13:22:37;;;;;;;25.63;5.25;;;;;;;14.20;60.18;102312.31;4988835;28;20042;-64
2021/09/30 13:25:09;;;;;;;23.88;5.20;;;;;;;14.28;60.86;102323.94;4989791;28;20088;-65
2021/09/30 13:27:37;;;;;;;24.57;5.30;;;;;;;14.20;59.86;102314.03;4990232;28;20050;-65
2021/09/30 13:30:08;;;;;;;25.17;5.45;;;;;;;14.18;60.59;102308.72;4990671;28;20100;-66
2021/09/30 13:32:34;;;;;;;23.90;5.13;;;;;;;14.26;60.10;102307.06;4988149;28;20038;-62
2021/09/30 13:35:00;;;;;;;26.02;4.70;;;;;;;14.25;60.21;102302.59;4988454;28;20053;-64
2021/09/30 13:37:26;;;;;;;23.60;4.53;;;;;;;14.32;60.37;102300.03;4988262;28;20566;-65
2021/09/30 13:39:57;;;;;;;25.05;4.53;;;;;;;14.22;59.75;102299.03;4994366;28;20045;-65
2021/09/30 13:42:30;;;;;;;31.90;5.15;;;;;;;14.06;60.46;102292.63;4999175;28;20033;-66
2021/09/30 13:44:57;;;;;;;23.65;4.55;;;;;;;14.03;60.49;102281.94;4991514;28;20062;-66
2021/09/30 13:47:27;;;;;;;21.98;4.30;;;;;;;14.11;59.94;102286.47;4991607;28;20478;-65
2021/09/30 13:49:52;;;;;;;24.30;4.50;;;;;;;14.27;60.52;102278.66;4991450;28;20030;-65
2021/09/30 13:52:18;;;;;;;25.13;4.68;;;;;;;14.64;58.45;102282.66;4992329;28;20042;-65
2021/09/30 13:54:44;;;;;;;25.52;5.00;;;;;;;14.95;57.36;102277.63;5014064;28;20041;-66
2021/09/30 13:57:10;;;;;;;27.05;4.60;;;;;;;15.05;57.57;102259.97;5023533;28;20029;-65
2021/09/30 13:59:38;;;;;;;23.85;4.50;;;;;;;15.10;58.06;102266.25;5024033;28;20034;-65
2021/09/30 14:02:04;;;;;;;24.40;5.00;;;;;;;14.94;58.96;102259.00;5018771;28;20022;-66
2021/09/30 14:04:29;;;;;;;22.42;4.20;;;;;;;14.82;58.84;102258.03;5023835;28;20041;-69
2021/09/30 14:06:56;;;;;;;23.95;4.28;;;;;;;14.62;58.04;102249.84;5023186;28;20048;-67
2021/09/30 14:09:22;;;;;;;23.92;4.60;;;;;;;14.48;59.55;102257.63;5021291;28;20032;-62